createdAt,value
2019-03-19T00:00:08.597Z,85.49
2019-03-19T00:01:08.621Z,85.90
2019-03-19T00:02:08.575Z,85.80
2019-03-19T00:03:08.562Z,85.90
2019-03-19T00:04:08.567Z,85.38
2019-03-19T00:05:08.542Z,85.28
2019-03-19T00:06:08.551Z,85.69
2019-03-19T00:07:08.518Z,85.49
2019-03-19T00:08:08.513Z,85.59
2019-03-19T00:09:08.514Z,85.80
2019-03-19T00:10:08.493Z,85.44
2019-03-19T00:11:08.475Z,85.75
2019-03-19T00:12:08.511Z,85.80
2019-03-19T00:13:08.474Z,85.75
2019-03-19T00:14:08.443Z,85.49
2019-03-19T00:15:08.449Z,85.80
2019-03-19T00:16:08.427Z,85.28
2019-03-19T00:17:08.408Z,85.80
2019-03-19T00:18:08.437Z,85.90
2019-03-19T00:19:08.388Z,85.80
2019-03-19T00:20:08.408Z,85.69
2019-03-19T00:21:08.364Z,86.00
2019-03-19T00:22:08.354Z,85.49
2019-03-19T00:23:08.347Z,85.38
2019-03-19T00:24:08.360Z,85.69
2019-03-19T00:25:08.325Z,85.90
2019-03-19T00:26:08.331Z,85.90
2019-03-19T00:27:08.303Z,84.96
2019-03-19T00:28:08.285Z,84.86
2019-03-19T00:29:08.278Z,85.06
2019-03-19T00:30:08.290Z,85.59
2019-03-19T00:31:08.255Z,85.17
2019-03-19T00:32:08.257Z,85.90
2019-03-19T00:33:08.239Z,85.80
2019-03-19T00:34:08.220Z,86.00
2019-03-19T00:35:08.215Z,85.73
2019-03-19T00:36:08.200Z,85.80
2019-03-19T00:37:08.238Z,85.90
2019-03-19T00:38:08.319Z,85.80
2019-03-19T00:39:08.169Z,85.90
2019-03-19T00:40:08.156Z,85.80
2019-03-19T00:41:08.144Z,85.90
2019-03-19T00:42:08.138Z,85.94
2019-03-19T00:43:08.121Z,85.80
2019-03-19T00:44:08.145Z,85.59
2019-03-19T00:45:08.103Z,85.83
2019-03-19T00:46:08.088Z,85.63
2019-03-19T00:47:08.082Z,85.52
2019-03-19T00:48:08.089Z,85.98
2019-03-19T00:49:08.057Z,85.94
2019-03-19T00:50:08.082Z,85.63
2019-03-19T00:51:08.034Z,85.98
2019-03-19T00:52:08.026Z,85.63
2019-03-19T00:53:08.012Z,85.98
2019-03-19T00:54:08.015Z,86.19
2019-03-19T00:55:07.996Z,85.98
2019-03-19T00:56:07.980Z,86.50
2019-03-19T00:57:08.027Z,86.60
2019-03-19T00:58:07.956Z,86.91
2019-03-19T00:59:07.965Z,86.91
2019-03-19T01:00:07.938Z,86.50
2019-03-19T01:01:07.937Z,86.50
2019-03-19T01:02:07.923Z,86.81
2019-03-19T01:03:07.998Z,86.50
2019-03-19T01:04:07.891Z,86.40
2019-03-19T01:05:07.880Z,86.50
2019-03-19T01:06:07.869Z,86.50
2019-03-19T01:07:07.856Z,86.40
2019-03-19T01:08:07.847Z,86.60
2019-03-19T01:09:07.899Z,86.29
2019-03-19T01:10:07.824Z,86.54
2019-03-19T01:11:07.829Z,86.91
2019-03-19T01:12:07.809Z,87.02
2019-03-19T01:13:07.792Z,87.54
2019-03-19T01:14:07.792Z,87.65
2019-03-19T01:15:07.805Z,87.96
2019-03-19T01:16:07.760Z,87.75
2019-03-19T01:17:07.761Z,87.65
2019-03-19T01:18:07.738Z,86.96
2019-03-19T01:19:07.725Z,86.81
2019-03-19T01:20:07.737Z,86.85
2019-03-19T01:21:07.719Z,86.85
2019-03-19T01:22:07.714Z,86.75
2019-03-19T01:23:07.685Z,86.75
2019-03-19T01:24:07.670Z,87.79
2019-03-19T01:25:07.657Z,87.89
2019-03-19T01:26:07.690Z,87.89
2019-03-19T01:27:07.654Z,86.96
2019-03-19T01:28:07.621Z,87.68
2019-03-19T01:29:07.612Z,87.68
2019-03-19T01:30:07.602Z,87.43
2019-03-19T01:31:07.595Z,87.12
2019-03-19T01:32:07.639Z,86.85
2019-03-19T01:33:07.591Z,86.85
2019-03-19T01:34:07.558Z,86.43
2019-03-19T01:35:07.547Z,86.43
2019-03-19T01:36:07.536Z,86.33
2019-03-19T01:37:07.525Z,86.43
2019-03-19T01:38:07.568Z,86.37
2019-03-19T01:39:07.517Z,86.37
2019-03-19T01:40:07.495Z,86.27
2019-03-19T01:41:07.492Z,86.54
2019-03-19T01:42:07.472Z,86.47
2019-03-19T01:43:07.460Z,86.16
2019-03-19T01:44:07.449Z,86.58
2019-03-19T01:45:07.497Z,86.99
2019-03-19T01:46:07.423Z,86.89
2019-03-19T01:47:07.426Z,87.76
2019-03-19T01:48:07.427Z,87.10
2019-03-19T01:49:07.394Z,88.04
2019-03-19T01:50:07.393Z,87.73
2019-03-19T01:51:07.402Z,87.55
2019-03-19T01:52:07.359Z,87.73
2019-03-19T01:53:07.366Z,88.14
2019-03-19T01:54:07.339Z,86.99
2019-03-19T01:55:07.329Z,87.73
2019-03-19T01:56:07.315Z,86.68
2019-03-19T01:57:07.346Z,86.89
2019-03-19T01:58:07.301Z,86.79
2019-03-19T01:59:07.296Z,86.51
2019-03-19T02:00:07.273Z,86.58
2019-03-19T02:01:07.277Z,86.58
2019-03-19T02:02:07.250Z,86.89
2019-03-19T02:03:07.286Z,87.76
2019-03-19T02:04:07.228Z,88.08
2019-03-19T02:05:07.219Z,88.35
2019-03-19T02:06:07.209Z,88.08
2019-03-19T02:07:07.213Z,87.45
2019-03-19T02:08:07.192Z,87.97
2019-03-19T02:09:07.199Z,87.10
2019-03-19T02:10:07.161Z,86.58
2019-03-19T02:11:07.153Z,86.68
2019-03-19T02:12:07.139Z,87.10
2019-03-19T02:13:07.140Z,87.20
2019-03-19T02:14:07.116Z,86.79
2019-03-19T02:15:07.154Z,87.41
2019-03-19T02:16:07.096Z,87.73
2019-03-19T02:17:07.102Z,87.97
2019-03-19T02:18:07.074Z,87.97
2019-03-19T02:19:07.063Z,87.55
2019-03-19T02:20:07.055Z,87.55
2019-03-19T02:21:07.093Z,87.04
2019-03-19T02:22:07.030Z,87.24
2019-03-19T02:23:07.032Z,87.97
2019-03-19T02:24:07.021Z,87.87
2019-03-19T02:25:07.003Z,87.76
2019-03-19T02:26:16.006Z,87.76
2019-03-19T02:27:08.016Z,87.55
2019-03-19T02:28:06.964Z,86.93
2019-03-19T02:29:06.954Z,87.66
2019-03-19T02:30:06.941Z,87.87
2019-03-19T02:31:06.956Z,87.14
2019-03-19T02:32:06.923Z,87.55
2019-03-19T02:33:06.950Z,87.04
2019-03-19T02:34:06.896Z,87.14
2019-03-19T02:35:06.885Z,87.76
2019-03-19T02:36:06.877Z,87.07
2019-03-19T02:37:06.884Z,87.97
2019-03-19T02:38:06.857Z,88.43
2019-03-19T02:39:06.888Z,88.08
2019-03-19T02:40:06.839Z,88.08
2019-03-19T02:41:06.832Z,88.29
2019-03-19T02:42:06.817Z,87.76
2019-03-19T02:43:06.826Z,88.43
2019-03-19T02:44:06.806Z,88.60
2019-03-19T02:45:06.827Z,88.39
2019-03-19T02:46:06.766Z,88.29
2019-03-19T02:47:06.754Z,88.85
2019-03-19T02:48:06.775Z,88.49
2019-03-19T02:49:06.750Z,89.12
2019-03-19T02:50:06.721Z,89.43
2019-03-19T02:51:06.763Z,89.54
2019-03-19T02:52:06.697Z,89.12
2019-03-19T02:53:06.695Z,89.22
2019-03-19T02:54:06.691Z,88.87
2019-03-19T02:55:06.664Z,89.08
2019-03-19T02:56:06.655Z,88.76
2019-03-19T02:57:06.700Z,88.60
2019-03-19T02:58:06.638Z,88.49
2019-03-19T02:59:06.641Z,88.91
2019-03-19T03:00:06.614Z,88.66
2019-03-19T03:01:06.599Z,88.60
2019-03-19T03:02:06.588Z,89.22
2019-03-19T03:03:06.627Z,88.91
2019-03-19T03:04:06.567Z,88.70
2019-03-19T03:05:06.578Z,88.60
2019-03-19T03:06:06.544Z,88.39
2019-03-19T03:07:06.533Z,88.39
2019-03-19T03:08:06.525Z,88.91
2019-03-19T03:09:06.565Z,88.70
2019-03-19T03:10:06.516Z,88.81
2019-03-19T03:11:06.516Z,89.01
2019-03-19T03:12:06.485Z,88.81
2019-03-19T03:13:06.474Z,89.16
2019-03-19T03:14:06.456Z,89.12
2019-03-19T03:15:06.449Z,89.47
2019-03-19T03:16:06.450Z,89.22
2019-03-19T03:17:06.483Z,89.58
2019-03-19T03:18:06.410Z,89.68
2019-03-19T03:19:06.399Z,89.16
2019-03-19T03:20:06.392Z,90.41
2019-03-19T03:21:06.381Z,90.20
2019-03-19T03:22:06.386Z,90.41
2019-03-19T03:23:06.410Z,90.20
2019-03-19T03:24:06.351Z,90.00
2019-03-19T03:25:06.342Z,90.20
2019-03-19T03:26:06.337Z,90.31
2019-03-19T03:27:06.326Z,90.10
2019-03-19T03:28:06.346Z,90.00
2019-03-19T03:29:06.290Z,90.31
2019-03-19T03:30:06.321Z,89.75
2019-03-19T03:31:06.304Z,90.68
2019-03-19T03:32:06.264Z,90.10
2019-03-19T03:33:06.276Z,89.16
2019-03-19T03:34:06.235Z,89.37
2019-03-19T03:35:06.237Z,89.78
2019-03-19T03:36:06.263Z,89.68
2019-03-19T03:37:06.203Z,89.58
2019-03-19T03:38:06.199Z,89.47
2019-03-19T03:39:06.205Z,89.58
2019-03-19T03:40:06.175Z,88.95
2019-03-19T03:41:06.169Z,88.64
2019-03-19T03:42:06.198Z,88.75
2019-03-19T03:43:06.137Z,88.43
2019-03-19T03:44:06.123Z,88.32
2019-03-19T03:45:06.150Z,88.47
2019-03-19T03:46:06.110Z,88.43
2019-03-19T03:47:06.093Z,88.12
2019-03-19T03:48:06.122Z,88.37
2019-03-19T03:49:06.081Z,88.78
2019-03-19T03:50:06.074Z,88.47
2019-03-19T03:51:06.062Z,88.22
2019-03-19T03:52:06.038Z,88.68
2019-03-19T03:53:06.031Z,88.47
2019-03-19T03:54:06.062Z,88.26
2019-03-19T03:55:06.004Z,88.43
2019-03-19T03:56:06.006Z,88.57
2019-03-19T03:57:05.982Z,88.43
2019-03-19T03:58:05.973Z,88.37
2019-03-19T03:59:05.961Z,88.22
2019-03-19T04:00:06.013Z,88.37
2019-03-19T04:01:05.939Z,88.95
2019-03-19T04:02:05.945Z,89.06
2019-03-19T04:03:05.915Z,89.06
2019-03-19T04:04:05.906Z,88.95
2019-03-19T04:05:05.889Z,88.89
2019-03-19T04:06:05.933Z,89.47
2019-03-19T04:07:05.870Z,89.20
2019-03-19T04:08:05.897Z,88.95
2019-03-19T04:09:09.125Z,88.95
2019-03-19T04:10:05.850Z,88.99
2019-03-19T04:11:05.824Z,89.51
2019-03-19T04:12:05.874Z,90.77
2019-03-19T04:13:05.837Z,90.45
2019-03-19T04:14:05.792Z,90.25
2019-03-19T04:15:05.784Z,90.25
2019-03-19T04:16:05.772Z,90.66
2019-03-19T04:17:05.761Z,90.87
2019-03-19T04:18:05.806Z,90.66
2019-03-19T04:19:05.778Z,90.35
2019-03-19T04:20:05.727Z,90.35
2019-03-19T04:21:05.724Z,90.28
2019-03-19T04:22:05.712Z,90.87
2019-03-19T04:23:05.698Z,90.35
2019-03-19T04:24:05.701Z,90.25
2019-03-19T04:25:05.786Z,90.35
2019-03-19T04:26:05.660Z,90.14
2019-03-19T04:27:15.363Z,90.35
2019-03-19T04:28:06.637Z,89.62
2019-03-19T04:29:05.656Z,89.41
2019-03-19T04:30:05.634Z,89.41
2019-03-19T04:31:05.619Z,89.93
2019-03-19T04:32:05.650Z,89.83
2019-03-19T04:33:05.585Z,90.35
2019-03-19T04:34:05.575Z,90.50
2019-03-19T04:35:05.591Z,90.97
2019-03-19T04:36:05.551Z,91.39
2019-03-19T04:37:05.541Z,91.29
2019-03-19T04:38:05.562Z,90.56
2019-03-19T04:39:05.523Z,90.45
2019-03-19T04:40:05.510Z,90.28
2019-03-19T04:41:05.506Z,90.14
2019-03-19T04:42:05.487Z,90.45
2019-03-19T04:43:05.487Z,90.77
2019-03-19T04:44:05.505Z,90.66
2019-03-19T04:45:05.451Z,90.56
2019-03-19T04:46:05.441Z,90.14
2019-03-19T04:47:05.430Z,90.45
2019-03-19T04:48:05.441Z,90.14
2019-03-19T04:49:05.407Z,90.66
2019-03-19T04:50:05.455Z,91.12
2019-03-19T04:51:05.385Z,90.66
2019-03-19T04:52:05.375Z,90.87
2019-03-19T04:53:05.361Z,90.56
2019-03-19T04:54:05.375Z,90.81
2019-03-19T04:55:05.341Z,90.35
2019-03-19T04:56:05.362Z,90.14
2019-03-19T04:57:05.318Z,90.28
2019-03-19T04:58:05.307Z,90.56
2019-03-19T04:59:05.297Z,90.97
2019-03-19T05:00:05.303Z,91.12
2019-03-19T05:01:05.277Z,90.97
2019-03-19T05:02:05.308Z,90.66
2019-03-19T05:03:05.251Z,90.25
2019-03-19T05:04:05.248Z,90.77
2019-03-19T05:05:05.231Z,89.93
2019-03-19T05:06:05.235Z,90.35
2019-03-19T05:07:05.217Z,90.14
2019-03-19T05:08:05.240Z,90.08
2019-03-19T05:09:05.190Z,90.08
2019-03-19T05:10:05.176Z,90.14
2019-03-19T05:11:05.184Z,89.93
2019-03-19T05:12:05.155Z,89.45
2019-03-19T05:13:05.141Z,89.87
2019-03-19T05:14:05.183Z,90.08
2019-03-19T05:15:05.119Z,90.39
2019-03-19T05:16:05.163Z,90.35
2019-03-19T05:17:05.115Z,89.24
2019-03-19T05:18:05.086Z,89.51
2019-03-19T05:19:05.078Z,89.56
2019-03-19T05:20:05.102Z,89.45
2019-03-19T05:21:05.053Z,89.34
2019-03-19T05:22:05.042Z,89.24
2019-03-19T05:23:05.061Z,89.34
2019-03-19T05:24:05.024Z,89.14
2019-03-19T05:25:05.006Z,89.45
2019-03-19T05:26:05.033Z,89.24
2019-03-19T05:27:05.035Z,89.45
2019-03-19T05:28:04.976Z,89.24
2019-03-19T05:29:04.978Z,89.34
2019-03-19T05:30:04.956Z,89.34
2019-03-19T05:31:04.962Z,89.87
2019-03-19T05:32:04.991Z,89.66
2019-03-19T05:33:04.919Z,89.34
2019-03-19T05:34:04.978Z,89.56
2019-03-19T05:35:04.930Z,89.45
2019-03-19T05:36:04.942Z,89.66
2019-03-19T05:37:04.880Z,89.97
2019-03-19T05:38:04.891Z,89.24
2019-03-19T05:39:04.856Z,89.45
2019-03-19T05:40:04.846Z,89.87
2019-03-19T05:41:04.840Z,89.66
2019-03-19T05:42:04.841Z,89.24
2019-03-19T05:43:12.383Z,90.08
2019-03-19T05:44:04.802Z,90.60
2019-03-19T05:45:04.791Z,91.12
2019-03-19T05:46:04.775Z,90.91
2019-03-19T05:47:04.768Z,90.60
2019-03-19T05:48:04.767Z,91.43
2019-03-19T05:49:04.752Z,91.33
2019-03-19T05:50:04.744Z,91.43
2019-03-19T05:51:04.719Z,91.33
2019-03-19T05:52:04.712Z,91.54
2019-03-19T05:53:04.711Z,91.33
2019-03-19T05:54:04.713Z,91.18
2019-03-19T05:55:04.673Z,91.22
2019-03-19T05:56:04.672Z,91.22
2019-03-19T05:57:04.666Z,91.08
2019-03-19T05:58:04.661Z,90.56
2019-03-19T05:59:04.637Z,90.66
2019-03-19T06:00:04.626Z,90.87
2019-03-19T06:01:04.622Z,90.87
2019-03-19T06:02:04.597Z,90.66
2019-03-19T06:03:04.587Z,90.25
2019-03-19T06:04:04.591Z,90.66
2019-03-19T06:05:04.590Z,90.35
2019-03-19T06:06:04.552Z,89.51
2019-03-19T06:07:04.544Z,89.72
2019-03-19T06:08:04.550Z,89.41
2019-03-19T06:09:04.543Z,89.66
2019-03-19T06:10:04.515Z,89.76
2019-03-19T06:11:04.503Z,89.51
2019-03-19T06:12:04.521Z,89.76
2019-03-19T06:13:04.476Z,90.25
2019-03-19T06:14:04.475Z,90.39
2019-03-19T06:15:04.479Z,90.50
2019-03-19T06:16:04.450Z,91.12
2019-03-19T06:17:04.434Z,90.91
2019-03-19T06:18:04.452Z,90.97
2019-03-19T06:19:04.409Z,90.56
2019-03-19T06:20:04.402Z,90.35
2019-03-19T06:21:04.427Z,90.45
2019-03-19T06:22:04.399Z,90.56
2019-03-19T06:23:04.413Z,90.45
2019-03-19T06:24:04.355Z,90.45
2019-03-19T06:25:04.375Z,90.25
2019-03-19T06:26:04.380Z,90.14
2019-03-19T06:27:04.437Z,90.25
2019-03-19T06:28:04.363Z,90.35
2019-03-19T06:29:04.344Z,90.52
2019-03-19T06:30:04.303Z,90.83
2019-03-19T06:31:04.285Z,90.66
2019-03-19T06:32:04.300Z,91.60
2019-03-19T06:33:04.283Z,91.25
2019-03-19T06:34:04.292Z,91.08
2019-03-19T06:35:04.234Z,90.83
2019-03-19T06:36:04.231Z,91.25
2019-03-19T06:37:04.218Z,91.14
2019-03-19T06:38:04.199Z,91.14
2019-03-19T06:39:04.219Z,91.10
2019-03-19T06:40:04.181Z,91.31
2019-03-19T06:41:04.166Z,90.89
2019-03-19T06:42:04.165Z,91.31
2019-03-19T06:43:04.151Z,91.20
2019-03-19T06:44:04.138Z,91.20
2019-03-19T06:45:04.139Z,91.52
2019-03-19T06:46:04.116Z,91.27
2019-03-19T06:47:04.102Z,90.47
2019-03-19T06:48:04.093Z,90.79
2019-03-19T06:49:04.106Z,90.85
2019-03-19T06:50:04.080Z,90.75
2019-03-19T06:51:04.089Z,90.95
2019-03-19T06:52:04.051Z,91.16
2019-03-19T06:53:04.033Z,90.95
2019-03-19T06:54:04.023Z,90.44
2019-03-19T06:55:04.011Z,90.75
2019-03-19T06:56:04.002Z,90.44
2019-03-19T06:57:04.020Z,90.39
2019-03-19T06:58:10.953Z,90.50
2019-03-19T06:59:04.970Z,90.50
2019-03-19T07:00:03.957Z,90.08
2019-03-19T07:01:03.947Z,89.94
2019-03-19T07:02:03.956Z,89.98
2019-03-19T07:03:03.937Z,90.19
2019-03-19T07:04:03.915Z,89.98
2019-03-19T07:05:03.905Z,90.04
2019-03-19T07:06:03.894Z,90.04
2019-03-19T07:07:03.880Z,89.83
2019-03-19T07:08:03.882Z,89.69
2019-03-19T07:09:03.870Z,88.85
2019-03-19T07:10:03.861Z,89.69
2019-03-19T07:11:03.845Z,89.48
2019-03-19T07:12:03.824Z,89.58
2019-03-19T07:13:03.819Z,89.43
2019-03-19T07:14:03.819Z,88.60
2019-03-19T07:15:03.824Z,88.50
2019-03-19T07:16:03.844Z,88.50
2019-03-19T07:17:03.770Z,87.73
2019-03-19T07:18:03.760Z,88.25
2019-03-19T07:19:03.754Z,87.24
2019-03-19T07:20:03.738Z,85.46
2019-03-19T07:21:03.726Z,84.03
2019-03-19T07:22:03.747Z,80.75
2019-03-19T07:23:03.719Z,81.16
2019-03-19T07:24:03.694Z,81.27
2019-03-19T07:25:03.681Z,81.93
2019-03-19T07:26:03.673Z,81.97
2019-03-19T07:27:03.663Z,82.65
2019-03-19T07:28:03.698Z,82.76
2019-03-19T07:29:03.653Z,81.93
2019-03-19T07:30:03.631Z,81.79
2019-03-19T07:31:03.639Z,81.58
2019-03-19T07:32:03.606Z,80.88
2019-03-19T07:33:03.614Z,80.19
2019-03-19T07:34:03.600Z,80.65
2019-03-19T07:35:03.583Z,80.89
2019-03-19T07:36:06.145Z,80.82
2019-03-19T07:37:03.573Z,80.19
2019-03-19T07:38:03.544Z,80.51
2019-03-19T07:39:03.531Z,80.05
2019-03-19T07:40:03.520Z,79.33
2019-03-19T07:41:03.523Z,79.37
2019-03-19T07:42:03.495Z,79.95
2019-03-19T07:43:03.521Z,79.77
2019-03-19T07:44:03.476Z,77.94
2019-03-19T07:45:03.465Z,76.50
2019-03-19T07:46:03.451Z,76.74
2019-03-19T07:47:03.471Z,77.05
2019-03-19T07:48:03.465Z,76.70
2019-03-19T07:49:03.417Z,76.53
2019-03-19T07:50:03.407Z,77.01
2019-03-19T07:51:03.394Z,76.73
2019-03-19T07:52:03.391Z,75.19
2019-03-19T07:53:03.373Z,75.32
2019-03-19T07:54:03.386Z,75.53
2019-03-19T07:55:03.350Z,76.15
2019-03-19T07:56:03.341Z,75.22
2019-03-19T07:57:03.330Z,75.95
2019-03-19T07:58:03.319Z,75.91
2019-03-19T07:59:03.322Z,75.29
2019-03-19T08:00:03.310Z,75.32
2019-03-19T08:01:03.327Z,76.77
2019-03-19T08:02:03.276Z,76.84
2019-03-19T08:03:03.314Z,75.70
2019-03-19T08:04:05.012Z,75.39
2019-03-19T08:05:03.271Z,75.32
2019-03-19T08:06:03.247Z,76.87
2019-03-19T08:07:03.218Z,76.64
2019-03-19T08:08:03.208Z,76.46
2019-03-19T08:09:03.197Z,76.77
2019-03-19T08:10:03.188Z,76.67
2019-03-19T08:11:03.189Z,76.43
2019-03-19T08:12:03.178Z,76.53
2019-03-19T08:13:03.169Z,76.81
2019-03-19T08:14:03.143Z,75.01
2019-03-19T08:15:03.136Z,75.01
2019-03-19T08:16:03.144Z,75.32
2019-03-19T08:17:03.108Z,74.60
2019-03-19T08:18:03.102Z,75.01
2019-03-19T08:19:03.129Z,74.26
2019-03-19T08:20:03.078Z,74.63
2019-03-19T08:21:03.069Z,73.74
2019-03-19T08:22:03.070Z,73.95
2019-03-19T08:23:03.043Z,74.19
2019-03-19T08:24:03.032Z,74.19
2019-03-19T08:25:03.037Z,73.85
2019-03-19T08:26:03.012Z,72.33
2019-03-19T08:27:02.999Z,72.44
2019-03-19T08:28:03.003Z,72.30
2019-03-19T08:29:02.976Z,72.33
2019-03-19T08:30:02.965Z,72.96
2019-03-19T08:31:02.995Z,73.16
2019-03-19T08:32:02.947Z,72.03
2019-03-19T08:33:02.952Z,72.13
2019-03-19T08:34:02.924Z,72.99
2019-03-19T08:35:02.912Z,73.50
2019-03-19T08:36:09.303Z,73.68
2019-03-19T08:37:03.899Z,73.47
2019-03-19T08:38:02.876Z,72.75
2019-03-19T08:39:02.879Z,72.13
2019-03-19T08:40:02.875Z,72.41
2019-03-19T08:41:02.856Z,72.09
2019-03-19T08:42:02.837Z,71.69
2019-03-19T08:43:02.831Z,72.33
2019-03-19T08:44:02.851Z,72.30
2019-03-19T08:45:02.825Z,72.27
2019-03-19T08:46:02.792Z,72.58
2019-03-19T08:47:02.779Z,71.44
2019-03-19T08:48:02.810Z,71.51
2019-03-19T08:49:02.762Z,72.13
2019-03-19T08:50:02.788Z,71.48
2019-03-19T08:51:02.732Z,69.22
2019-03-19T08:52:02.727Z,70.56
2019-03-19T08:53:02.712Z,69.49
2019-03-19T08:54:02.700Z,69.70
2019-03-19T08:55:02.692Z,69.90
2019-03-19T08:56:02.706Z,69.87
2019-03-19T08:57:02.668Z,69.56
2019-03-19T08:58:02.662Z,68.10
2019-03-19T08:59:06.053Z,67.82
2019-03-19T09:00:02.635Z,68.40
2019-03-19T09:01:02.633Z,68.61
2019-03-19T09:02:02.624Z,67.79
2019-03-19T09:03:02.628Z,68.71
2019-03-19T09:04:02.591Z,68.30
2019-03-19T09:05:03.174Z,69.94
2019-03-19T09:06:02.587Z,69.81
2019-03-19T09:07:02.557Z,69.60
2019-03-19T09:08:02.548Z,69.37
2019-03-19T09:09:02.554Z,67.32
2019-03-19T09:10:02.526Z,67.93
2019-03-19T09:11:02.515Z,67.62
2019-03-19T09:12:02.521Z,65.70
2019-03-19T09:13:02.491Z,67.65
2019-03-19T09:14:02.512Z,67.86
2019-03-19T09:15:02.499Z,66.83
2019-03-19T09:16:02.464Z,67.55
2019-03-19T09:17:02.447Z,68.27
2019-03-19T09:18:02.449Z,68.68
2019-03-19T09:19:02.437Z,67.52
2019-03-19T09:20:02.416Z,65.67
2019-03-19T09:21:02.415Z,66.31
2019-03-19T09:22:02.395Z,66.01
2019-03-19T09:23:02.393Z,66.31
2019-03-19T09:24:02.371Z,67.24
2019-03-19T09:25:02.380Z,65.60
2019-03-19T09:26:02.348Z,65.91
2019-03-19T09:27:02.369Z,66.11
2019-03-19T09:28:02.351Z,65.63
2019-03-19T09:29:02.325Z,66.42
2019-03-19T09:30:02.318Z,66.08
2019-03-19T09:31:02.293Z,65.98
2019-03-19T09:32:02.283Z,66.08
2019-03-19T09:33:02.271Z,67.79
2019-03-19T09:34:02.269Z,65.00
2019-03-19T09:35:02.258Z,64.61
2019-03-19T09:36:02.248Z,65.54
2019-03-19T09:37:02.226Z,65.30
2019-03-19T09:38:02.218Z,65.84
2019-03-19T09:39:02.203Z,64.51
2019-03-19T09:40:02.202Z,62.90
2019-03-19T09:41:02.214Z,63.93
2019-03-19T09:42:02.171Z,65.77
2019-03-19T09:43:02.160Z,65.77
2019-03-19T09:44:02.178Z,66.01
2019-03-19T09:45:02.141Z,64.29
2019-03-19T09:46:02.126Z,65.63
2019-03-19T09:47:02.157Z,65.12
2019-03-19T09:48:02.107Z,65.50
2019-03-19T09:49:02.098Z,64.06
2019-03-19T09:50:02.087Z,64.16
2019-03-19T09:51:02.073Z,63.93
2019-03-19T09:52:02.060Z,63.62
2019-03-19T09:53:02.072Z,63.72
2019-03-19T09:54:02.039Z,63.31
2019-03-19T09:55:02.053Z,61.46
2019-03-19T09:56:02.019Z,61.74
2019-03-19T09:57:02.006Z,62.66
2019-03-19T09:58:02.007Z,61.92
2019-03-19T09:59:02.035Z,62.40
2019-03-19T10:00:01.973Z,63.02
2019-03-19T10:01:01.963Z,61.38
2019-03-19T10:02:01.993Z,61.07
2019-03-19T10:03:01.953Z,61.76
2019-03-19T10:04:01.943Z,62.27
2019-03-19T10:05:01.927Z,61.93
2019-03-19T10:06:13.625Z,60.53
2019-03-19T10:07:06.262Z,59.78
2019-03-19T10:08:01.889Z,58.28
2019-03-19T10:09:01.923Z,60.33
2019-03-19T10:10:01.863Z,60.91
2019-03-19T10:11:01.897Z,60.60
2019-03-19T10:12:01.842Z,57.71
2019-03-19T10:13:01.847Z,58.50
2019-03-19T10:14:01.832Z,59.42
2019-03-19T10:15:01.808Z,57.99
2019-03-19T10:16:01.809Z,59.39
2019-03-19T10:17:01.809Z,58.09
2019-03-19T10:18:01.778Z,57.99
2019-03-19T10:19:01.837Z,57.92
2019-03-19T10:20:01.756Z,56.33
2019-03-19T10:21:01.742Z,57.43
2019-03-19T10:22:01.731Z,55.62
2019-03-19T10:23:01.755Z,56.02
2019-03-19T10:24:01.750Z,59.30
2019-03-19T10:25:01.721Z,60.81
2019-03-19T10:26:01.687Z,60.42
2019-03-19T10:27:01.684Z,58.86
2019-03-19T10:28:01.672Z,57.71
2019-03-19T10:29:01.667Z,57.33
2019-03-19T10:30:01.689Z,57.40
2019-03-19T10:31:01.635Z,57.99
2019-03-19T10:32:01.623Z,56.33
2019-03-19T10:33:01.618Z,54.18
2019-03-19T10:34:01.600Z,51.21
2019-03-19T10:35:01.588Z,51.04
2019-03-19T10:36:01.603Z,51.24
2019-03-19T10:37:01.566Z,48.27
2019-03-19T10:38:01.555Z,50.20
2019-03-19T10:39:01.543Z,48.54
2019-03-19T10:40:01.535Z,50.78
2019-03-19T10:41:01.548Z,49.66
2019-03-19T10:42:01.522Z,50.48
2019-03-19T10:43:01.511Z,53.21
2019-03-19T10:44:01.494Z,50.86
2019-03-19T10:45:01.501Z,51.68
2019-03-19T10:46:01.465Z,46.49
2019-03-19T10:47:01.467Z,47.00
2019-03-19T10:48:01.477Z,47.94
2019-03-19T10:49:01.432Z,50.48
2019-03-19T10:50:01.423Z,49.15
2019-03-19T10:51:01.409Z,49.17
2019-03-19T10:52:01.415Z,48.86
2019-03-19T10:53:01.391Z,48.97
2019-03-19T10:54:01.412Z,50.17
2019-03-19T10:55:01.377Z,49.54
2019-03-19T10:56:01.357Z,49.62
2019-03-19T10:57:01.346Z,48.69
2019-03-19T10:58:10.577Z,48.59
2019-03-19T10:59:02.319Z,49.51
2019-03-19T11:00:01.339Z,50.12
2019-03-19T11:01:01.297Z,48.69
2019-03-19T11:02:01.287Z,50.33
2019-03-19T11:03:01.276Z,48.61
2019-03-19T11:04:01.279Z,48.28
2019-03-19T11:05:01.266Z,48.82
2019-03-19T11:06:01.249Z,48.51
2019-03-19T11:07:01.234Z,49.54
2019-03-19T11:08:01.246Z,48.39
2019-03-19T11:09:01.209Z,48.90
2019-03-19T11:10:01.212Z,48.49
2019-03-19T11:11:03.514Z,47.29
2019-03-19T11:12:01.179Z,45.98
2019-03-19T11:13:01.163Z,45.88
2019-03-19T11:14:01.152Z,46.08
2019-03-19T11:15:01.167Z,47.74
2019-03-19T11:16:01.131Z,49.05
2019-03-19T11:17:01.123Z,48.51
2019-03-19T11:18:01.119Z,47.78
2019-03-19T11:19:01.108Z,47.67
2019-03-19T11:20:01.086Z,47.55
2019-03-19T11:21:01.110Z,47.86
2019-03-19T11:22:01.066Z,47.57
2019-03-19T11:23:01.052Z,47.19
2019-03-19T11:24:01.060Z,45.78
2019-03-19T11:25:01.029Z,48.23
2019-03-19T11:26:01.035Z,48.54
2019-03-19T11:27:01.023Z,48.61
2019-03-19T11:28:01.000Z,48.49
2019-03-19T11:29:00.985Z,48.31
2019-03-19T11:30:01.000Z,47.37
2019-03-19T11:31:00.962Z,47.31
2019-03-19T11:32:00.968Z,48.10
2019-03-19T11:33:00.948Z,47.31
2019-03-19T11:34:00.930Z,47.11
2019-03-19T11:35:00.922Z,47.90
2019-03-19T11:36:00.922Z,45.26
2019-03-19T11:37:00.913Z,45.88
2019-03-19T11:38:00.951Z,47.20
2019-03-19T11:39:00.874Z,46.37
2019-03-19T11:40:00.867Z,45.96
2019-03-19T11:41:00.853Z,45.88
2019-03-19T11:42:00.849Z,46.19
2019-03-19T11:43:00.918Z,47.15
2019-03-19T11:45:20.577Z,49.66
2019-03-19T11:46:20.560Z,49.63
2019-03-19T11:47:20.556Z,48.26
2019-03-19T11:48:20.574Z,49.05
2019-03-19T11:49:20.533Z,50.15
2019-03-19T11:50:20.526Z,44.98
2019-03-19T11:51:20.509Z,47.12
2019-03-19T11:52:20.501Z,47.61
2019-03-19T11:53:20.486Z,45.87
2019-03-19T11:54:20.500Z,44.26
2019-03-19T11:55:20.469Z,46.10
2019-03-19T11:56:20.460Z,44.38
2019-03-19T11:57:20.446Z,45.02
2019-03-19T11:58:20.442Z,44.59
2019-03-19T11:59:20.427Z,46.45
2019-03-19T12:00:20.452Z,46.22
2019-03-19T12:01:20.400Z,46.10
2019-03-19T12:02:25.914Z,44.65
2019-03-19T12:03:21.376Z,45.69
2019-03-19T12:04:20.373Z,44.98
2019-03-19T12:05:20.353Z,47.24
2019-03-19T12:06:20.389Z,48.03
2019-03-19T12:07:20.334Z,47.32
2019-03-19T12:08:20.321Z,47.50
2019-03-19T12:09:20.313Z,47.08
2019-03-19T12:10:20.299Z,46.24
2019-03-19T12:11:20.321Z,47.56
2019-03-19T12:12:20.280Z,44.71
2019-03-19T12:13:20.279Z,45.12
2019-03-19T12:14:20.253Z,46.36
2019-03-19T12:15:20.247Z,44.45
2019-03-19T12:16:20.231Z,46.89
2019-03-19T12:17:20.606Z,47.00
2019-03-19T12:18:20.214Z,48.50
2019-03-19T12:19:20.199Z,47.79
2019-03-19T12:20:20.875Z,45.77
2019-03-19T12:21:20.191Z,44.78
2019-03-19T12:22:20.164Z,47.55
2019-03-19T12:23:20.171Z,46.22
2019-03-19T12:24:20.157Z,47.24
2019-03-19T12:25:20.130Z,48.98
2019-03-19T12:26:20.130Z,45.72
2019-03-19T12:27:20.106Z,45.92
2019-03-19T12:28:20.108Z,45.92
2019-03-19T12:29:20.091Z,47.88
2019-03-19T12:30:22.517Z,48.36
2019-03-19T12:31:20.076Z,49.26
2019-03-19T12:32:20.056Z,48.71
2019-03-19T12:33:20.049Z,48.18
2019-03-19T12:34:20.035Z,47.26
2019-03-19T12:35:20.031Z,44.89
2019-03-19T12:36:20.025Z,44.10
2019-03-19T12:37:20.010Z,43.90
2019-03-19T12:38:19.990Z,44.24
2019-03-19T12:39:19.975Z,45.49
2019-03-19T12:40:20.016Z,48.14
2019-03-19T12:41:19.975Z,46.89
2019-03-19T12:42:19.946Z,45.14
2019-03-19T12:43:19.947Z,45.83
2019-03-19T12:44:19.916Z,47.46
2019-03-19T12:45:19.910Z,47.66
2019-03-19T12:46:19.910Z,45.75
2019-03-19T12:47:19.893Z,44.63
2019-03-19T12:48:19.890Z,44.45
2019-03-19T12:49:19.867Z,45.57
2019-03-19T12:50:19.854Z,47.17
2019-03-19T12:51:19.844Z,46.03
2019-03-19T12:52:19.832Z,47.05
2019-03-19T12:53:19.826Z,44.32